Walnut Ridge, AR

11:37 PM CDT on May 29, 2015 (GMT -0500)
Newport | | Change Station
CLOSE
Current Station
Airport
Location: Newport,
Elevation: 240 ft
Nearby Weather Stations

Elev 240 ft 35.64 °N, 91.17 °W | Updated 41 minutes ago

Clear
Clear
74 °F
Feels Like 74 °F
N
7
Wind Variable Wind from SE

Today
High -- | Low -- °F
--% Chance of Precip.
Yesterday
High -- | Low -- °F
Precip. -- in
5:49 AM 8:13 PM
Waxing Gibbous, 88% visible
Pressure 29.96 in
Visibility 10.0 miles
Clouds Clear
Dew Point 72 °F
Humidity 93%
Rainfall 0.13 in
Snow Depth Not available.
UV 0 out of 12
Pollen 6.10 out of 12
Air Quality Not available.
Flu Activity No Activity
METAR KM19 300356Z AUTO 13006KT 10SM CLR 23/22 A2996 RMK AO2 T02330222 SLP143

More Conditions Fewer Conditions

Pressure 29.96 in
Visibility 10.0 miles
Clouds Clear
Dew Point 72 °F
Humidity 93%
Rainfall 0.13 in
Snow Depth Not available.
UV 0 out of 12
Pollen 6.10 out of 12
Air Quality Not available.
Flu Activity No Activity
METAR KM19 300356Z AUTO 13006KT 10SM CLR 23/22 A2996 RMK AO2 T02330222 SLP143

More Conditions Fewer Conditions

10-Day Weather Forecast

Almanac

Astronomy

May. 29, 2015 Rise Set
Actual Time
Civil Twilight
Nautical Twilight
Astronomical Twilight
Moon
Length of Visible Light
Length of Day
Tomorrow will be .
, % of the Moon is Illuminated

Today's Extremes

State Highs State Lows

Community

WunderPhotos

Upload Photos

1,825,450 photos uploaded!

WunderBlogs® & News

Nearby

Air Quality

  Air Quality AQ Index Pollutant
Not available.

Snow Depth

Station Depth Elevation

Earthquake Activity

City Distance Mag. Time & Date
Minimum magnitude displayed is 2.5.

Coastal Water Temperatures

Place Temperature

Stations

Nearby Weather Stations

Station Location Temp. Windchill Dew Point Humidity Wind Precip. Elev Updated Type